Newell, North Carolina
Current Conditions -  °F | °C
As of 3:55 PM on Monday 22 Dec 2014 (Local Time) from KJQF Reporting Station
Haze Haze  
Wind Chill: 31°   Ceiling: 500
Heat Index: 37°   Visibility: 1.7mi
Dew Point: 37°   Wind: 8mph
Humidity: 100%   Direction: 20°NNE
Pressure: 30.07"   Gusts: NA
Location:  35.28°N, 80.74°W
Report Text: KJQF 222055Z 02007KT 1 3/4SM BR OVC005 03/03 A3007
Loading
Personal Weather Stations






























Interactive Weather Map New forecast layout! Learn more

10-Day Weather Forecast

Advertisements
Track Severe Weather on mobile